Terminal Aerodrome Forecast
Issued by NWS

Home | Current Version | Previous Version | Text Only | Print | Product List | Glossary On
Versions: 1 2 3 4 5 6 7 8 9 10 11 12 13 14 15 16 17 18 19 20 21 22 23 24 25 26 27 28 29 30 31 32 33 34 35 36 37 38 39 40
297
FTUS43 KPAH 090316 AAC
TAFOWB
TAF AMD
KOWB 090316Z 0903/0924 31013KT 6SM -SN OVC040
      TEMPO 0903/0905 2SM -SN BR BKN015 OVC025
     FM090700 29012KT 6SM -SN BKN020 OVC040
      TEMPO 0908/0911 3SM -SN BR OVC020=

USA.gov is the U.S. government's official web portal to all federal, state and local government web resources and services.